sensor_id;sensor_type;location;lat;lon;timestamp;P1;durP1;ratioP1;P2;durP2;ratioP2
20880;SDS011;10600;53.096;8.802;2024-01-30T00:00:37;25.00;;;18.70;;
20880;SDS011;10600;53.096;8.802;2024-01-30T00:01:38;25.13;;;17.00;;
20880;SDS011;10600;53.096;8.802;2024-01-30T00:02:38;25.45;;;18.23;;
20880;SDS011;10600;53.096;8.802;2024-01-30T00:03:39;27.83;;;19.23;;
20880;SDS011;10600;53.096;8.802;2024-01-30T00:04:39;24.15;;;17.85;;
20880;SDS011;10600;53.096;8.802;2024-01-30T00:05:40;24.98;;;18.13;;
20880;SDS011;10600;53.096;8.802;2024-01-30T00:06:40;27.40;;;17.35;;
20880;SDS011;10600;53.096;8.802;2024-01-30T00:07:41;26.08;;;18.67;;
20880;SDS011;10600;53.096;8.802;2024-01-30T00:08:41;27.95;;;18.35;;
20880;SDS011;10600;53.096;8.802;2024-01-30T00:09:42;28.75;;;18.33;;
20880;SDS011;10600;53.096;8.802;2024-01-30T00:10:43;27.25;;;18.45;;
20880;SDS011;10600;53.096;8.802;2024-01-30T00:11:43;26.52;;;17.83;;
20880;SDS011;10600;53.096;8.802;2024-01-30T00:12:44;24.45;;;18.00;;
20880;SDS011;10600;53.096;8.802;2024-01-30T00:13:44;25.13;;;18.33;;
20880;SDS011;10600;53.096;8.802;2024-01-30T00:14:45;25.00;;;17.75;;
20880;SDS011;10600;53.096;8.802;2024-01-30T00:15:46;27.42;;;17.88;;
20880;SDS011;10600;53.096;8.802;2024-01-30T00:16:46;27.42;;;18.40;;
20880;SDS011;10600;53.096;8.802;2024-01-30T00:17:47;23.52;;;17.42;;
20880;SDS011;10600;53.096;8.802;2024-01-30T00:18:47;28.27;;;18.42;;
20880;SDS011;10600;53.096;8.802;2024-01-30T00:19:48;26.55;;;17.98;;
20880;SDS011;10600;53.096;8.802;2024-01-30T00:20:49;26.98;;;17.90;;
20880;SDS011;10600;53.096;8.802;2024-01-30T00:21:49;29.55;;;17.92;;
20880;SDS011;10600;53.096;8.802;2024-01-30T00:22:50;25.67;;;17.65;;
20880;SDS011;10600;53.096;8.802;2024-01-30T00:23:50;27.02;;;18.17;;
20880;SDS011;10600;53.096;8.802;2024-01-30T00:24:51;23.33;;;17.17;;
20880;SDS011;10600;53.096;8.802;2024-01-30T00:25:52;24.35;;;16.13;;
20880;SDS011;10600;53.096;8.802;2024-01-30T00:26:52;26.17;;;17.33;;
20880;SDS011;10600;53.096;8.802;2024-01-30T00:27:53;25.23;;;18.00;;
20880;SDS011;10600;53.096;8.802;2024-01-30T00:28:53;29.92;;;18.15;;
20880;SDS011;10600;53.096;8.802;2024-01-30T00:29:54;23.25;;;16.60;;
20880;SDS011;10600;53.096;8.802;2024-01-30T00:30:54;24.52;;;17.15;;
20880;SDS011;10600;53.096;8.802;2024-01-30T00:31:55;23.65;;;16.30;;
20880;SDS011;10600;53.096;8.802;2024-01-30T00:32:55;24.08;;;16.85;;
20880;SDS011;10600;53.096;8.802;2024-01-30T00:33:56;23.73;;;17.95;;
20880;SDS011;10600;53.096;8.802;2024-01-30T00:34:56;28.98;;;18.25;;
20880;SDS011;10600;53.096;8.802;2024-01-30T00:35:58;26.65;;;16.23;;
20880;SDS011;10600;53.096;8.802;2024-01-30T00:36:59;25.15;;;17.20;;
20880;SDS011;10600;53.096;8.802;2024-01-30T00:37:59;24.30;;;16.48;;
20880;SDS011;10600;53.096;8.802;2024-01-30T00:39:00;23.63;;;16.20;;
20880;SDS011;10600;53.096;8.802;2024-01-30T00:40:00;24.20;;;17.58;;
20880;SDS011;10600;53.096;8.802;2024-01-30T00:41:01;25.35;;;17.00;;
20880;SDS011;10600;53.096;8.802;2024-01-30T00:42:02;22.98;;;16.23;;
20880;SDS011;10600;53.096;8.802;2024-01-30T00:43:02;25.10;;;17.63;;
20880;SDS011;10600;53.096;8.802;2024-01-30T00:44:03;26.50;;;17.38;;
20880;SDS011;10600;53.096;8.802;2024-01-30T00:45:04;30.85;;;17.63;;
20880;SDS011;10600;53.096;8.802;2024-01-30T00:46:05;25.35;;;17.20;;
20880;SDS011;10600;53.096;8.802;2024-01-30T00:47:05;24.48;;;16.60;;
20880;SDS011;10600;53.096;8.802;2024-01-30T00:48:06;24.88;;;17.20;;
20880;SDS011;10600;53.096;8.802;2024-01-30T00:49:06;26.30;;;17.73;;
20880;SDS011;10600;53.096;8.802;2024-01-30T00:50:07;23.52;;;16.70;;
20880;SDS011;10600;53.096;8.802;2024-01-30T00:51:08;26.38;;;17.38;;
20880;SDS011;10600;53.096;8.802;2024-01-30T00:52:08;26.17;;;17.15;;
20880;SDS011;10600;53.096;8.802;2024-01-30T00:53:09;23.52;;;16.38;;
20880;SDS011;10600;53.096;8.802;2024-01-30T00:54:09;26.42;;;16.98;;
20880;SDS011;10600;53.096;8.802;2024-01-30T00:55:10;23.88;;;16.77;;
20880;SDS011;10600;53.096;8.802;2024-01-30T00:56:11;24.80;;;16.13;;
20880;SDS011;10600;53.096;8.802;2024-01-30T00:57:11;28.70;;;17.13;;
20880;SDS011;10600;53.096;8.802;2024-01-30T00:58:12;22.00;;;15.98;;
20880;SDS011;10600;53.096;8.802;2024-01-30T00:59:12;24.38;;;16.63;;
20880;SDS011;10600;53.096;8.802;2024-01-30T01:00:13;23.58;;;16.38;;
20880;SDS011;10600;53.096;8.802;2024-01-30T01:01:17;23.80;;;15.52;;
20880;SDS011;10600;53.096;8.802;2024-01-30T01:02:18;24.75;;;16.48;;
20880;SDS011;10600;53.096;8.802;2024-01-30T01:03:18;24.48;;;16.70;;
20880;SDS011;10600;53.096;8.802;2024-01-30T01:04:19;22.83;;;16.45;;
20880;SDS011;10600;53.096;8.802;2024-01-30T01:05:21;23.52;;;15.23;;
20880;SDS011;10600;53.096;8.802;2024-01-30T01:06:22;22.67;;;15.98;;
20880;SDS011;10600;53.096;8.802;2024-01-30T01:07:22;25.00;;;16.08;;
20880;SDS011;10600;53.096;8.802;2024-01-30T01:08:23;24.10;;;16.80;;
20880;SDS011;10600;53.096;8.802;2024-01-30T01:09:23;23.00;;;16.83;;
20880;SDS011;10600;53.096;8.802;2024-01-30T01:10:24;24.40;;;16.15;;
20880;SDS011;10600;53.096;8.802;2024-01-30T01:11:25;26.45;;;17.30;;
20880;SDS011;10600;53.096;8.802;2024-01-30T01:12:25;24.35;;;16.35;;
20880;SDS011;10600;53.096;8.802;2024-01-30T01:13:26;22.50;;;16.55;;
20880;SDS011;10600;53.096;8.802;2024-01-30T01:14:26;24.20;;;16.67;;
20880;SDS011;10600;53.096;8.802;2024-01-30T01:15:27;24.35;;;16.35;;
20880;SDS011;10600;53.096;8.802;2024-01-30T01:16:28;21.92;;;15.48;;
20880;SDS011;10600;53.096;8.802;2024-01-30T01:17:28;25.23;;;16.15;;
20880;SDS011;10600;53.096;8.802;2024-01-30T01:18:29;23.58;;;15.70;;
20880;SDS011;10600;53.096;8.802;2024-01-30T01:19:29;22.13;;;15.75;;
20880;SDS011;10600;53.096;8.802;2024-01-30T01:20:30;21.85;;;15.27;;
20880;SDS011;10600;53.096;8.802;2024-01-30T01:21:31;23.38;;;16.48;;
20880;SDS011;10600;53.096;8.802;2024-01-30T01:22:32;25.85;;;17.40;;
20880;SDS011;10600;53.096;8.802;2024-01-30T01:23:33;23.73;;;16.20;;
20880;SDS011;10600;53.096;8.802;2024-01-30T01:24:33;24.67;;;16.77;;
20880;SDS011;10600;53.096;8.802;2024-01-30T01:25:34;20.38;;;14.95;;
20880;SDS011;10600;53.096;8.802;2024-01-30T01:26:34;23.90;;;15.68;;
20880;SDS011;10600;53.096;8.802;2024-01-30T01:27:35;22.58;;;15.88;;
20880;SDS011;10600;53.096;8.802;2024-01-30T01:28:40;22.17;;;15.30;;
20880;SDS011;10600;53.096;8.802;2024-01-30T01:29:41;22.58;;;16.60;;
20880;SDS011;10600;53.096;8.802;2024-01-30T01:30:41;22.42;;;15.77;;
20880;SDS011;10600;53.096;8.802;2024-01-30T01:31:42;22.70;;;15.40;;
20880;SDS011;10600;53.096;8.802;2024-01-30T01:32:46;22.83;;;15.68;;
20880;SDS011;10600;53.096;8.802;2024-01-30T01:33:54;23.73;;;15.95;;
20880;SDS011;10600;53.096;8.802;2024-01-30T01:34:55;25.75;;;16.23;;
20880;SDS011;10600;53.096;8.802;2024-01-30T01:35:55;23.40;;;16.77;;
20880;SDS011;10600;53.096;8.802;2024-01-30T01:36:59;22.42;;;16.10;;
20880;SDS011;10600;53.096;8.802;2024-01-30T01:38:02;22.70;;;15.98;;
20880;SDS011;10600;53.096;8.802;2024-01-30T01:39:03;21.85;;;15.82;;
20880;SDS011;10600;53.096;8.802;2024-01-30T01:40:04;23.95;;;16.98;;
20880;SDS011;10600;53.096;8.802;2024-01-30T01:41:06;23.13;;;15.95;;
20880;SDS011;10600;53.096;8.802;2024-01-30T01:42:07;27.95;;;15.73;;
20880;SDS011;10600;53.096;8.802;2024-01-30T01:43:07;23.23;;;16.40;;
20880;SDS011;10600;53.096;8.802;2024-01-30T01:44:08;21.30;;;15.20;;
20880;SDS011;10600;53.096;8.802;2024-01-30T01:45:09;24.17;;;17.02;;
20880;SDS011;10600;53.096;8.802;2024-01-30T01:46:09;26.08;;;17.30;;
20880;SDS011;10600;53.096;8.802;2024-01-30T01:47:10;20.45;;;15.80;;
20880;SDS011;10600;53.096;8.802;2024-01-30T01:48:11;24.15;;;16.42;;
20880;SDS011;10600;53.096;8.802;2024-01-30T01:49:12;22.40;;;15.27;;
20880;SDS011;10600;53.096;8.802;2024-01-30T01:50:15;23.10;;;16.48;;
20880;SDS011;10600;53.096;8.802;2024-01-30T01:51:18;23.35;;;16.23;;
20880;SDS011;10600;53.096;8.802;2024-01-30T01:52:23;24.58;;;15.80;;
20880;SDS011;10600;53.096;8.802;2024-01-30T01:53:23;26.30;;;16.25;;
20880;SDS011;10600;53.096;8.802;2024-01-30T01:54:24;25.42;;;16.65;;
20880;SDS011;10600;53.096;8.802;2024-01-30T01:55:26;22.48;;;16.33;;
20880;SDS011;10600;53.096;8.802;2024-01-30T01:56:29;23.80;;;15.90;;
20880;SDS011;10600;53.096;8.802;2024-01-30T01:57:31;23.50;;;16.20;;
20880;SDS011;10600;53.096;8.802;2024-01-30T01:58:31;23.90;;;17.02;;
20880;SDS011;10600;53.096;8.802;2024-01-30T01:59:32;21.27;;;15.18;;
20880;SDS011;10600;53.096;8.802;2024-01-30T02:00:33;24.35;;;15.70;;
20880;SDS011;10600;53.096;8.802;2024-01-30T02:01:35;27.50;;;16.95;;
20880;SDS011;10600;53.096;8.802;2024-01-30T02:02:37;25.73;;;16.90;;
20880;SDS011;10600;53.096;8.802;2024-01-30T02:03:39;24.40;;;16.42;;
20880;SDS011;10600;53.096;8.802;2024-01-30T02:04:40;24.27;;;16.67;;
20880;SDS011;10600;53.096;8.802;2024-01-30T02:05:42;23.23;;;16.48;;
20880;SDS011;10600;53.096;8.802;2024-01-30T02:06:43;26.33;;;16.33;;
20880;SDS011;10600;53.096;8.802;2024-01-30T02:07:44;26.13;;;16.67;;
20880;SDS011;10600;53.096;8.802;2024-01-30T02:08:44;25.95;;;16.23;;
20880;SDS011;10600;53.096;8.802;2024-01-30T02:09:55;24.30;;;16.38;;
20880;SDS011;10600;53.096;8.802;2024-01-30T02:10:59;22.30;;;16.10;;
20880;SDS011;10600;53.096;8.802;2024-01-30T02:11:59;24.92;;;17.15;;
20880;SDS011;10600;53.096;8.802;2024-01-30T02:13:00;24.13;;;16.38;;
20880;SDS011;10600;53.096;8.802;2024-01-30T02:14:04;26.95;;;17.55;;
20880;SDS011;10600;53.096;8.802;2024-01-30T02:15:05;23.92;;;16.33;;
20880;SDS011;10600;53.096;8.802;2024-01-30T02:16:07;25.02;;;16.70;;
20880;SDS011;10600;53.096;8.802;2024-01-30T02:17:08;25.40;;;16.75;;
20880;SDS011;10600;53.096;8.802;2024-01-30T02:18:08;24.55;;;16.15;;
20880;SDS011;10600;53.096;8.802;2024-01-30T02:19:09;25.33;;;17.77;;
20880;SDS011;10600;53.096;8.802;2024-01-30T02:20:09;25.08;;;17.17;;
20880;SDS011;10600;53.096;8.802;2024-01-30T02:21:10;24.95;;;16.92;;
20880;SDS011;10600;53.096;8.802;2024-01-30T02:22:12;22.90;;;16.02;;
20880;SDS011;10600;53.096;8.802;2024-01-30T02:23:13;25.90;;;16.40;;
20880;SDS011;10600;53.096;8.802;2024-01-30T02:24:16;26.90;;;18.30;;
20880;SDS011;10600;53.096;8.802;2024-01-30T02:25:16;26.58;;;17.75;;
20880;SDS011;10600;53.096;8.802;2024-01-30T02:26:17;26.77;;;17.35;;
20880;SDS011;10600;53.096;8.802;2024-01-30T02:27:17;24.63;;;17.23;;
20880;SDS011;10600;53.096;8.802;2024-01-30T02:28:18;24.80;;;17.90;;
20880;SDS011;10600;53.096;8.802;2024-01-30T02:29:19;25.40;;;16.83;;
20880;SDS011;10600;53.096;8.802;2024-01-30T02:30:22;25.10;;;16.35;;
20880;SDS011;10600;53.096;8.802;2024-01-30T02:31:24;23.63;;;17.38;;
20880;SDS011;10600;53.096;8.802;2024-01-30T02:32:25;26.70;;;17.02;;
20880;SDS011;10600;53.096;8.802;2024-01-30T02:33:29;25.80;;;17.60;;
20880;SDS011;10600;53.096;8.802;2024-01-30T02:34:30;27.42;;;17.88;;
20880;SDS011;10600;53.096;8.802;2024-01-30T02:35:30;25.08;;;17.63;;
20880;SDS011;10600;53.096;8.802;2024-01-30T02:36:31;25.92;;;17.58;;
20880;SDS011;10600;53.096;8.802;2024-01-30T02:37:32;24.05;;;16.67;;
20880;SDS011;10600;53.096;8.802;2024-01-30T02:38:32;26.27;;;17.35;;
20880;SDS011;10600;53.096;8.802;2024-01-30T02:39:33;27.33;;;17.77;;
20880;SDS011;10600;53.096;8.802;2024-01-30T02:40:33;28.52;;;16.98;;
20880;SDS011;10600;53.096;8.802;2024-01-30T02:41:34;28.33;;;17.40;;
20880;SDS011;10600;53.096;8.802;2024-01-30T02:42:34;25.13;;;16.35;;
20880;SDS011;10600;53.096;8.802;2024-01-30T02:43:35;24.15;;;17.45;;
20880;SDS011;10600;53.096;8.802;2024-01-30T02:44:35;30.38;;;17.52;;
20880;SDS011;10600;53.096;8.802;2024-01-30T02:45:36;24.80;;;17.38;;
20880;SDS011;10600;53.096;8.802;2024-01-30T02:46:36;27.83;;;18.50;;
20880;SDS011;10600;53.096;8.802;2024-01-30T02:47:37;26.17;;;17.90;;
20880;SDS011;10600;53.096;8.802;2024-01-30T02:48:38;25.08;;;18.33;;
20880;SDS011;10600;53.096;8.802;2024-01-30T02:49:39;25.42;;;17.38;;
20880;SDS011;10600;53.096;8.802;2024-01-30T02:50:39;27.17;;;17.20;;
20880;SDS011;10600;53.096;8.802;2024-01-30T02:51:40;25.40;;;17.17;;
20880;SDS011;10600;53.096;8.802;2024-01-30T02:52:40;25.50;;;17.92;;
20880;SDS011;10600;53.096;8.802;2024-01-30T02:53:43;25.27;;;17.85;;
20880;SDS011;10600;53.096;8.802;2024-01-30T02:54:47;29.60;;;18.48;;
20880;SDS011;10600;53.096;8.802;2024-01-30T02:55:47;23.98;;;16.77;;
20880;SDS011;10600;53.096;8.802;2024-01-30T02:56:50;26.33;;;17.73;;
20880;SDS011;10600;53.096;8.802;2024-01-30T02:57:51;30.63;;;18.58;;
20880;SDS011;10600;53.096;8.802;2024-01-30T02:58:52;29.63;;;18.35;;
20880;SDS011;10600;53.096;8.802;2024-01-30T02:59:52;27.80;;;18.42;;
20880;SDS011;10600;53.096;8.802;2024-01-30T03:00:53;26.85;;;18.17;;
20880;SDS011;10600;53.096;8.802;2024-01-30T03:01:53;27.65;;;18.88;;
20880;SDS011;10600;53.096;8.802;2024-01-30T03:02:54;29.02;;;18.40;;
20880;SDS011;10600;53.096;8.802;2024-01-30T03:03:54;27.25;;;17.90;;
20880;SDS011;10600;53.096;8.802;2024-01-30T03:04:55;25.80;;;18.17;;
20880;SDS011;10600;53.096;8.802;2024-01-30T03:05:55;29.02;;;17.65;;
20880;SDS011;10600;53.096;8.802;2024-01-30T03:06:56;27.52;;;18.88;;
20880;SDS011;10600;53.096;8.802;2024-01-30T03:07:56;29.13;;;19.38;;
20880;SDS011;10600;53.096;8.802;2024-01-30T03:08:57;24.70;;;18.02;;
20880;SDS011;10600;53.096;8.802;2024-01-30T03:09:57;28.90;;;19.33;;
20880;SDS011;10600;53.096;8.802;2024-01-30T03:10:58;27.80;;;18.23;;
20880;SDS011;10600;53.096;8.802;2024-01-30T03:11:58;26.10;;;18.05;;
20880;SDS011;10600;53.096;8.802;2024-01-30T03:12:59;25.83;;;18.27;;
20880;SDS011;10600;53.096;8.802;2024-01-30T03:13:59;29.55;;;19.20;;
20880;SDS011;10600;53.096;8.802;2024-01-30T03:15:00;30.05;;;19.13;;
20880;SDS011;10600;53.096;8.802;2024-01-30T03:16:00;28.75;;;18.63;;
20880;SDS011;10600;53.096;8.802;2024-01-30T03:17:01;27.75;;;19.35;;
20880;SDS011;10600;53.096;8.802;2024-01-30T03:18:02;26.70;;;18.27;;
20880;SDS011;10600;53.096;8.802;2024-01-30T03:19:06;26.55;;;17.95;;
20880;SDS011;10600;53.096;8.802;2024-01-30T03:20:09;30.08;;;18.73;;
20880;SDS011;10600;53.096;8.802;2024-01-30T03:21:09;26.25;;;17.98;;
20880;SDS011;10600;53.096;8.802;2024-01-30T03:22:10;27.88;;;18.33;;
20880;SDS011;10600;53.096;8.802;2024-01-30T03:23:10;28.83;;;18.08;;
20880;SDS011;10600;53.096;8.802;2024-01-30T03:24:11;28.48;;;18.13;;
20880;SDS011;10600;53.096;8.802;2024-01-30T03:25:12;27.23;;;18.55;;
20880;SDS011;10600;53.096;8.802;2024-01-30T03:26:12;34.05;;;18.95;;
20880;SDS011;10600;53.096;8.802;2024-01-30T03:27:14;26.85;;;18.65;;
20880;SDS011;10600;53.096;8.802;2024-01-30T03:28:15;28.85;;;18.77;;
20880;SDS011;10600;53.096;8.802;2024-01-30T03:29:15;28.23;;;19.60;;
20880;SDS011;10600;53.096;8.802;2024-01-30T03:30:16;29.15;;;18.63;;
20880;SDS011;10600;53.096;8.802;2024-01-30T03:31:17;27.15;;;18.70;;
20880;SDS011;10600;53.096;8.802;2024-01-30T03:32:17;24.33;;;18.08;;
20880;SDS011;10600;53.096;8.802;2024-01-30T03:33:18;26.90;;;18.40;;
20880;SDS011;10600;53.096;8.802;2024-01-30T03:34:18;30.67;;;18.65;;
20880;SDS011;10600;53.096;8.802;2024-01-30T03:35:19;27.67;;;19.20;;
20880;SDS011;10600;53.096;8.802;2024-01-30T03:36:20;27.35;;;19.08;;
20880;SDS011;10600;53.096;8.802;2024-01-30T03:37:20;32.90;;;19.75;;
20880;SDS011;10600;53.096;8.802;2024-01-30T03:38:21;28.73;;;18.85;;
20880;SDS011;10600;53.096;8.802;2024-01-30T03:39:21;27.17;;;19.05;;
20880;SDS011;10600;53.096;8.802;2024-01-30T03:40:23;29.65;;;19.58;;
20880;SDS011;10600;53.096;8.802;2024-01-30T03:41:23;27.80;;;19.05;;
20880;SDS011;10600;53.096;8.802;2024-01-30T03:42:24;29.77;;;18.85;;
20880;SDS011;10600;53.096;8.802;2024-01-30T03:43:24;31.48;;;18.60;;
20880;SDS011;10600;53.096;8.802;2024-01-30T03:44:25;29.02;;;19.30;;
20880;SDS011;10600;53.096;8.802;2024-01-30T03:45:26;29.38;;;19.30;;
20880;SDS011;10600;53.096;8.802;2024-01-30T03:46:26;31.42;;;19.98;;
20880;SDS011;10600;53.096;8.802;2024-01-30T03:47:27;31.27;;;19.45;;
20880;SDS011;10600;53.096;8.802;2024-01-30T03:48:28;28.10;;;18.95;;
20880;SDS011;10600;53.096;8.802;2024-01-30T03:49:29;29.85;;;20.45;;
20880;SDS011;10600;53.096;8.802;2024-01-30T03:50:29;30.02;;;19.50;;
20880;SDS011;10600;53.096;8.802;2024-01-30T03:51:30;27.88;;;19.38;;
20880;SDS011;10600;53.096;8.802;2024-01-30T03:52:31;29.63;;;19.90;;
20880;SDS011;10600;53.096;8.802;2024-01-30T03:53:31;30.67;;;19.88;;
20880;SDS011;10600;53.096;8.802;2024-01-30T03:54:32;27.90;;;19.08;;
20880;SDS011;10600;53.096;8.802;2024-01-30T03:55:32;29.85;;;20.13;;
20880;SDS011;10600;53.096;8.802;2024-01-30T03:56:33;28.23;;;18.50;;
20880;SDS011;10600;53.096;8.802;2024-01-30T03:57:33;29.65;;;19.52;;
20880;SDS011;10600;53.096;8.802;2024-01-30T03:58:34;28.50;;;19.95;;
20880;SDS011;10600;53.096;8.802;2024-01-30T03:59:34;29.58;;;19.65;;
20880;SDS011;10600;53.096;8.802;2024-01-30T04:00:35;30.90;;;19.07;;
20880;SDS011;10600;53.096;8.802;2024-01-30T04:01:35;29.23;;;19.73;;
20880;SDS011;10600;53.096;8.802;2024-01-30T04:02:36;29.85;;;18.77;;
20880;SDS011;10600;53.096;8.802;2024-01-30T04:03:36;29.67;;;19.08;;
20880;SDS011;10600;53.096;8.802;2024-01-30T04:04:37;30.10;;;18.83;;
20880;SDS011;10600;53.096;8.802;2024-01-30T04:05:37;26.45;;;18.42;;
20880;SDS011;10600;53.096;8.802;2024-01-30T04:06:38;29.17;;;18.83;;
20880;SDS011;10600;53.096;8.802;2024-01-30T04:07:38;26.23;;;18.73;;
20880;SDS011;10600;53.096;8.802;2024-01-30T04:08:39;30.52;;;19.52;;
20880;SDS011;10600;53.096;8.802;2024-01-30T04:09:39;29.58;;;18.95;;
20880;SDS011;10600;53.096;8.802;2024-01-30T04:10:40;30.13;;;20.13;;
20880;SDS011;10600;53.096;8.802;2024-01-30T04:11:41;29.60;;;19.92;;
20880;SDS011;10600;53.096;8.802;2024-01-30T04:12:44;38.55;;;20.27;;
20880;SDS011;10600;53.096;8.802;2024-01-30T04:13:44;30.25;;;19.70;;
20880;SDS011;10600;53.096;8.802;2024-01-30T04:14:50;36.15;;;20.05;;
20880;SDS011;10600;53.096;8.802;2024-01-30T04:15:53;32.88;;;18.70;;
20880;SDS011;10600;53.096;8.802;2024-01-30T04:16:55;27.75;;;18.98;;
20880;SDS011;10600;53.096;8.802;2024-01-30T04:17:58;30.52;;;19.17;;
20880;SDS011;10600;53.096;8.802;2024-01-30T04:18:59;29.35;;;17.73;;
20880;SDS011;10600;53.096;8.802;2024-01-30T04:19:59;30.90;;;18.90;;
20880;SDS011;10600;53.096;8.802;2024-01-30T04:21:01;30.58;;;19.85;;
20880;SDS011;10600;53.096;8.802;2024-01-30T04:22:02;32.67;;;19.50;;
20880;SDS011;10600;53.096;8.802;2024-01-30T04:23:03;31.10;;;19.20;;
20880;SDS011;10600;53.096;8.802;2024-01-30T04:24:03;26.80;;;18.63;;
20880;SDS011;10600;53.096;8.802;2024-01-30T04:25:04;27.20;;;19.10;;
20880;SDS011;10600;53.096;8.802;2024-01-30T04:26:05;32.00;;;20.23;;
20880;SDS011;10600;53.096;8.802;2024-01-30T04:27:06;29.08;;;20.15;;
20880;SDS011;10600;53.096;8.802;2024-01-30T04:28:06;32.17;;;20.05;;
20880;SDS011;10600;53.096;8.802;2024-01-30T04:29:07;27.65;;;19.52;;
20880;SDS011;10600;53.096;8.802;2024-01-30T04:30:07;27.38;;;18.48;;
20880;SDS011;10600;53.096;8.802;2024-01-30T04:31:08;27.38;;;19.15;;
20880;SDS011;10600;53.096;8.802;2024-01-30T04:32:09;24.67;;;18.15;;
20880;SDS011;10600;53.096;8.802;2024-01-30T04:33:10;29.13;;;18.73;;
20880;SDS011;10600;53.096;8.802;2024-01-30T04:34:11;29.20;;;19.40;;
20880;SDS011;10600;53.096;8.802;2024-01-30T04:35:11;25.83;;;17.95;;
20880;SDS011;10600;53.096;8.802;2024-01-30T04:36:12;29.10;;;19.50;;
20880;SDS011;10600;53.096;8.802;2024-01-30T04:37:15;27.52;;;18.58;;
20880;SDS011;10600;53.096;8.802;2024-01-30T04:38:22;28.45;;;19.50;;
20880;SDS011;10600;53.096;8.802;2024-01-30T04:39:22;33.65;;;19.27;;
20880;SDS011;10600;53.096;8.802;2024-01-30T04:40:23;31.67;;;19.02;;
20880;SDS011;10600;53.096;8.802;2024-01-30T04:41:23;25.85;;;18.60;;
20880;SDS011;10600;53.096;8.802;2024-01-30T04:42:24;29.33;;;19.20;;
20880;SDS011;10600;53.096;8.802;2024-01-30T04:43:24;30.38;;;19.88;;
20880;SDS011;10600;53.096;8.802;2024-01-30T04:44:26;26.85;;;18.65;;
20880;SDS011;10600;53.096;8.802;2024-01-30T04:45:26;30.48;;;19.33;;
20880;SDS011;10600;53.096;8.802;2024-01-30T04:46:27;28.75;;;19.88;;
20880;SDS011;10600;53.096;8.802;2024-01-30T04:47:28;29.52;;;19.63;;
20880;SDS011;10600;53.096;8.802;2024-01-30T04:48:29;26.55;;;19.13;;
20880;SDS011;10600;53.096;8.802;2024-01-30T04:49:30;31.83;;;19.77;;
20880;SDS011;10600;53.096;8.802;2024-01-30T04:50:31;29.85;;;19.00;;
20880;SDS011;10600;53.096;8.802;2024-01-30T04:51:31;26.77;;;19.67;;
20880;SDS011;10600;53.096;8.802;2024-01-30T04:52:32;27.75;;;19.35;;
20880;SDS011;10600;53.096;8.802;2024-01-30T04:53:32;30.25;;;19.70;;
20880;SDS011;10600;53.096;8.802;2024-01-30T04:54:34;26.05;;;18.70;;
20880;SDS011;10600;53.096;8.802;2024-01-30T04:55:35;28.60;;;18.38;;
20880;SDS011;10600;53.096;8.802;2024-01-30T04:56:36;32.28;;;19.50;;
20880;SDS011;10600;53.096;8.802;2024-01-30T04:57:36;32.33;;;19.73;;
20880;SDS011;10600;53.096;8.802;2024-01-30T04:58:37;31.02;;;19.75;;
20880;SDS011;10600;53.096;8.802;2024-01-30T04:59:38;32.05;;;20.55;;
20880;SDS011;10600;53.096;8.802;2024-01-30T05:00:38;32.33;;;19.20;;
20880;SDS011;10600;53.096;8.802;2024-01-30T05:01:39;30.13;;;19.17;;
20880;SDS011;10600;53.096;8.802;2024-01-30T05:02:39;28.10;;;19.77;;
20880;SDS011;10600;53.096;8.802;2024-01-30T05:03:40;28.85;;;19.58;;
20880;SDS011;10600;53.096;8.802;2024-01-30T05:04:40;30.83;;;20.58;;
20880;SDS011;10600;53.096;8.802;2024-01-30T05:05:41;28.20;;;19.00;;
20880;SDS011;10600;53.096;8.802;2024-01-30T05:06:42;27.80;;;18.98;;
20880;SDS011;10600;53.096;8.802;2024-01-30T05:07:43;29.17;;;19.42;;
20880;SDS011;10600;53.096;8.802;2024-01-30T05:08:43;30.30;;;20.05;;
20880;SDS011;10600;53.096;8.802;2024-01-30T05:09:44;29.92;;;18.88;;
20880;SDS011;10600;53.096;8.802;2024-01-30T05:10:44;31.00;;;19.73;;
20880;SDS011;10600;53.096;8.802;2024-01-30T05:11:45;32.00;;;20.10;;
20880;SDS011;10600;53.096;8.802;2024-01-30T05:12:49;28.95;;;19.85;;
20880;SDS011;10600;53.096;8.802;2024-01-30T05:13:50;30.73;;;20.77;;
20880;SDS011;10600;53.096;8.802;2024-01-30T05:14:50;31.92;;;19.70;;
20880;SDS011;10600;53.096;8.802;2024-01-30T05:15:51;30.30;;;19.67;;
20880;SDS011;10600;53.096;8.802;2024-01-30T05:16:52;31.73;;;20.65;;
20880;SDS011;10600;53.096;8.802;2024-01-30T05:17:52;34.00;;;20.77;;
20880;SDS011;10600;53.096;8.802;2024-01-30T05:18:53;27.20;;;18.90;;
20880;SDS011;10600;53.096;8.802;2024-01-30T05:19:54;32.08;;;20.50;;
20880;SDS011;10600;53.096;8.802;2024-01-30T05:20:54;30.30;;;20.25;;
20880;SDS011;10600;53.096;8.802;2024-01-30T05:21:55;30.50;;;20.27;;
20880;SDS011;10600;53.096;8.802;2024-01-30T05:22:55;35.08;;;21.10;;
20880;SDS011;10600;53.096;8.802;2024-01-30T05:23:56;32.25;;;20.77;;
20880;SDS011;10600;53.096;8.802;2024-01-30T05:24:56;30.13;;;21.00;;
20880;SDS011;10600;53.096;8.802;2024-01-30T05:25:57;29.15;;;20.50;;
20880;SDS011;10600;53.096;8.802;2024-01-30T05:26:57;30.40;;;20.40;;
20880;SDS011;10600;53.096;8.802;2024-01-30T05:27:58;30.80;;;20.88;;
20880;SDS011;10600;53.096;8.802;2024-01-30T05:28:58;31.35;;;21.05;;
20880;SDS011;10600;53.096;8.802;2024-01-30T05:29:59;30.88;;;20.50;;
20880;SDS011;10600;53.096;8.802;2024-01-30T05:30:59;31.90;;;20.10;;
20880;SDS011;10600;53.096;8.802;2024-01-30T05:32:00;31.83;;;20.77;;
20880;SDS011;10600;53.096;8.802;2024-01-30T05:33:00;32.20;;;20.92;;
20880;SDS011;10600;53.096;8.802;2024-01-30T05:34:01;37.20;;;21.67;;
20880;SDS011;10600;53.096;8.802;2024-01-30T05:35:02;37.17;;;22.40;;
20880;SDS011;10600;53.096;8.802;2024-01-30T05:36:03;33.75;;;20.98;;
20880;SDS011;10600;53.096;8.802;2024-01-30T05:37:03;32.42;;;21.15;;
20880;SDS011;10600;53.096;8.802;2024-01-30T05:38:04;30.98;;;21.73;;
20880;SDS011;10600;53.096;8.802;2024-01-30T05:39:05;31.33;;;21.83;;
20880;SDS011;10600;53.096;8.802;2024-01-30T05:40:05;33.95;;;21.35;;
20880;SDS011;10600;53.096;8.802;2024-01-30T05:41:06;33.47;;;21.48;;
20880;SDS011;10600;53.096;8.802;2024-01-30T05:42:08;31.73;;;20.92;;
20880;SDS011;10600;53.096;8.802;2024-01-30T05:43:10;34.60;;;22.67;;
20880;SDS011;10600;53.096;8.802;2024-01-30T05:44:10;34.42;;;22.52;;
20880;SDS011;10600;53.096;8.802;2024-01-30T05:45:11;35.60;;;21.60;;
20880;SDS011;10600;53.096;8.802;2024-01-30T05:46:11;43.05;;;23.27;;
20880;SDS011;10600;53.096;8.802;2024-01-30T05:47:12;34.70;;;21.80;;
20880;SDS011;10600;53.096;8.802;2024-01-30T05:48:12;38.63;;;22.73;;
20880;SDS011;10600;53.096;8.802;2024-01-30T05:49:13;34.75;;;21.73;;
20880;SDS011;10600;53.096;8.802;2024-01-30T05:50:13;34.75;;;21.15;;
20880;SDS011;10600;53.096;8.802;2024-01-30T05:51:14;33.22;;;22.05;;
20880;SDS011;10600;53.096;8.802;2024-01-30T05:52:14;35.65;;;22.55;;
20880;SDS011;10600;53.096;8.802;2024-01-30T05:53:16;33.58;;;21.73;;
20880;SDS011;10600;53.096;8.802;2024-01-30T05:54:16;34.03;;;21.75;;
20880;SDS011;10600;53.096;8.802;2024-01-30T05:55:17;31.63;;;21.25;;
20880;SDS011;10600;53.096;8.802;2024-01-30T05:56:18;33.85;;;21.55;;